Parkman, Maine
Current Conditions -  °F | °C
As of 6:53 PM on Sunday 21 Dec 2014 (Local Time) from KBGR Reporting Station
Overcast Overcast  
Wind Chill: 23°   Ceiling: 900
Heat Index: 28°   Visibility: 10mi
Dew Point: 25°   Wind: 5mph
Humidity: 88%   Direction: 360°N
Pressure: 30.38"   Gusts: NA
Location:  45.2519°N, 69.3542°W
Report Text: KBGR 212353Z 36004KT 10SM BKN009 OVC034 M02/M04 A3038 RMK AO2 SLP289 T10221039 11011 21028 51012
Loading
Personal Weather Stations






























Interactive Weather Map New forecast layout! Learn more

10-Day Weather Forecast

Advertisements
Track Severe Weather on mobile